createdAt,value
2022-12-15T00:05:15.130Z,-2.25
2022-12-15T00:10:35.343Z,-2.31
2022-12-15T00:15:55.728Z,-2.29
2022-12-15T00:21:17.067Z,-2.18
2022-12-15T00:26:37.286Z,-2.19
2022-12-15T00:31:57.486Z,-2.19
2022-12-15T00:37:17.705Z,-2.23
2022-12-15T00:42:19.095Z,-2.28
2022-12-15T00:47:20.445Z,-2.28
2022-12-15T00:59:02.257Z,-2.40
2022-12-15T01:04:22.440Z,-2.32
2022-12-15T01:09:42.659Z,-2.25
2022-12-15T01:15:02.649Z,-2.28
2022-12-15T01:20:17.887Z,-2.31
2022-12-15T01:25:21.741Z,-2.34
2022-12-15T01:30:25.646Z,-2.28
2022-12-15T01:35:27.751Z,-2.38
2022-12-15T01:40:50.166Z,-2.50
2022-12-15T01:46:15.881Z,-2.46
2022-12-15T01:51:17.344Z,-2.31
2022-12-15T01:56:19.678Z,-2.51
2022-12-15T02:01:21.263Z,-2.58
2022-12-15T02:06:26.018Z,-2.59
2022-12-15T02:11:55.039Z,-2.50
2022-12-15T02:17:05.153Z,-2.57
2022-12-15T02:22:54.131Z,-2.54
2022-12-15T02:28:06.405Z,-2.51
2022-12-15T02:33:21.617Z,-2.52
2022-12-15T02:38:35.836Z,-2.56
2022-12-15T02:43:38.902Z,-2.61
2022-12-15T02:48:50.222Z,-2.67
2022-12-15T02:54:08.138Z,-2.72
2022-12-15T02:59:21.524Z,-2.76
2022-12-15T03:04:23.213Z,-2.77
2022-12-15T03:09:24.662Z,-2.75
2022-12-15T03:14:26.568Z,-2.78
2022-12-15T03:19:28.191Z,-2.79
2022-12-15T03:24:29.808Z,-2.83
2022-12-15T03:29:31.186Z,-2.91
2022-12-15T03:34:32.575Z,-2.85
2022-12-15T03:39:34.029Z,-2.86
2022-12-15T03:44:35.432Z,-2.94
2022-12-15T03:49:36.934Z,-3.06
2022-12-15T03:54:38.411Z,-2.99
2022-12-15T03:59:39.755Z,-2.97
2022-12-15T04:04:41.142Z,-3.05
2022-12-15T04:09:42.555Z,-3.04
2022-12-15T04:14:43.905Z,-3.00
2022-12-15T04:20:03.835Z,-3.02
2022-12-15T04:25:25.855Z,-2.96
2022-12-15T04:30:46.106Z,-3.00
2022-12-15T04:36:08.144Z,-2.94
2022-12-15T04:41:28.298Z,-3.08
2022-12-15T04:46:48.337Z,-2.98
2022-12-15T04:52:08.315Z,-2.95
2022-12-15T04:57:28.098Z,-2.87
2022-12-15T05:02:48.364Z,-2.85
2022-12-15T05:08:09.839Z,-2.78
2022-12-15T05:13:30.446Z,-2.70
2022-12-15T05:18:50.646Z,-2.61
2022-12-15T05:24:11.069Z,-2.52
2022-12-15T05:29:31.127Z,-2.38
2022-12-15T05:34:34.501Z,-2.31
2022-12-15T05:39:36.759Z,-2.25
2022-12-15T05:44:38.149Z,-2.19
2022-12-15T05:49:39.598Z,-2.16
2022-12-15T05:54:40.940Z,-2.18
2022-12-15T05:59:42.500Z,-2.13
2022-12-15T06:04:43.948Z,-2.12
2022-12-15T06:09:46.508Z,-2.03
2022-12-15T06:14:47.856Z,-1.97
2022-12-15T06:19:51.309Z,-1.89
2022-12-15T06:24:52.877Z,-1.92
2022-12-15T06:29:54.275Z,-1.88
2022-12-15T06:34:55.690Z,-1.85
2022-12-15T06:39:57.084Z,-1.87
2022-12-15T06:44:58.521Z,-1.80
2022-12-15T06:50:00.066Z,-1.62
2022-12-15T06:55:01.534Z,-1.57
2022-12-15T07:00:04.527Z,-1.55
2022-12-15T07:05:06.104Z,-1.65
2022-12-15T07:10:07.822Z,-1.60
2022-12-15T07:15:11.200Z,-1.58
2022-12-15T07:20:12.802Z,-1.61
2022-12-15T07:25:14.420Z,-1.68
2022-12-15T07:30:17.548Z,-1.76
2022-12-15T07:35:18.999Z,-1.69
2022-12-15T07:40:20.565Z,-1.61
2022-12-15T07:45:21.919Z,-1.57
2022-12-15T07:50:23.295Z,-1.55
2022-12-15T07:55:50.063Z,-1.55
2022-12-15T08:00:48.962Z,-1.60
2022-12-15T08:05:50.519Z,-1.65
2022-12-15T08:10:52.091Z,-1.93
2022-12-15T08:15:54.952Z,-1.44
2022-12-15T08:20:57.031Z,-1.47
2022-12-15T08:26:11.827Z,-1.50
2022-12-15T08:31:17.295Z,-1.47
2022-12-15T08:36:20.538Z,-1.43
2022-12-15T08:41:24.614Z,-1.39
2022-12-15T08:46:28.841Z,-1.30
2022-12-15T08:51:32.808Z,-1.34
2022-12-15T08:56:35.617Z,-1.24
2022-12-15T09:01:40.242Z,-1.12
2022-12-15T09:06:42.251Z,-1.22
2022-12-15T09:11:43.689Z,-1.23
2022-12-15T09:16:45.178Z,-1.20
2022-12-15T09:21:48.371Z,-1.20
2022-12-15T09:26:49.756Z,-1.14
2022-12-15T09:31:51.313Z,-1.05
2022-12-15T09:36:52.864Z,-0.98
2022-12-15T09:41:58.430Z,-1.00
2022-12-15T09:47:12.729Z,-0.99
2022-12-15T09:52:40.166Z,-0.98
2022-12-15T09:57:52.669Z,-0.98
2022-12-15T10:03:25.377Z,-1.04
2022-12-15T10:08:31.045Z,-0.99
2022-12-15T10:13:58.475Z,-0.96
2022-12-15T10:19:08.430Z,-0.98
2022-12-15T10:24:31.604Z,-0.94
2022-12-15T10:29:45.100Z,-1.18
2022-12-15T10:34:52.300Z,-1.03
2022-12-15T10:39:53.844Z,-1.00
2022-12-15T10:44:58.083Z,-0.94
2022-12-15T10:50:25.023Z,-0.87
2022-12-15T10:55:40.293Z,-0.75
2022-12-15T11:00:41.807Z,-0.75
2022-12-15T11:05:52.258Z,-0.72
2022-12-15T11:11:15.821Z,-1.03
2022-12-15T11:16:19.837Z,-0.58
2022-12-15T11:21:28.505Z,-0.55
2022-12-15T11:27:03.906Z,-0.67
2022-12-15T11:32:07.580Z,-0.59
2022-12-15T11:37:24.041Z,-0.61
2022-12-15T11:42:52.164Z,-0.60
2022-12-15T11:48:19.448Z,-0.51
2022-12-15T11:53:34.676Z,-0.54
2022-12-15T11:58:54.122Z,-0.53
2022-12-15T12:04:14.943Z,-0.55
2022-12-15T12:09:32.963Z,-0.46
2022-12-15T12:14:50.568Z,-0.43
2022-12-15T12:19:58.803Z,-0.43
2022-12-15T12:25:04.374Z,-0.33
2022-12-15T12:30:14.005Z,-0.27
2022-12-15T12:35:33.732Z,-0.23
2022-12-15T12:40:41.181Z,-0.33
2022-12-15T12:45:54.481Z,-0.30
2022-12-15T12:51:34.225Z,-0.31
2022-12-15T12:56:50.461Z,-0.57
2022-12-15T13:01:52.183Z,-0.28
2022-12-15T13:06:59.965Z,-0.26
2022-12-15T13:12:15.011Z,-0.38
2022-12-15T13:17:29.263Z,-0.43
2022-12-15T13:22:35.689Z,-0.24
2022-12-15T13:27:40.647Z,-0.25
2022-12-15T13:32:45.985Z,-0.23
2022-12-15T13:37:53.450Z,-0.38
2022-12-15T13:42:59.702Z,-0.36
2022-12-15T13:48:05.473Z,-0.40
2022-12-15T13:53:20.903Z,-0.31
2022-12-15T13:58:23.837Z,-0.20
2022-12-15T14:03:25.776Z,0.20
2022-12-15T14:08:30.147Z,0.16
2022-12-15T14:13:36.200Z,-0.01
2022-12-15T14:18:41.245Z,-0.25
2022-12-15T14:24:19.102Z,-0.43
2022-12-15T14:29:06.777Z,-0.49
2022-12-15T14:34:15.219Z,-0.68
2022-12-15T14:39:23.130Z,-0.69
2022-12-15T14:44:38.251Z,-0.68
2022-12-15T14:49:43.252Z,-0.70
2022-12-15T14:54:57.233Z,-0.82
2022-12-15T15:00:32.687Z,-0.97
2022-12-15T15:05:34.163Z,-1.09
2022-12-15T15:10:35.588Z,-1.00
2022-12-15T15:15:37.316Z,-1.27
2022-12-15T15:20:38.924Z,-1.23
2022-12-15T15:25:48.996Z,-1.33
2022-12-15T15:30:57.270Z,-1.27
2022-12-15T15:36:02.265Z,-1.40
2022-12-15T15:41:17.307Z,-1.49
2022-12-15T15:46:22.607Z,-1.53
2022-12-15T15:51:25.008Z,-1.55
2022-12-15T15:56:27.428Z,-1.55
2022-12-15T16:01:28.876Z,-1.65
2022-12-15T16:06:30.286Z,-1.75
2022-12-15T16:11:32.475Z,-1.73
2022-12-15T16:16:34.534Z,-1.76
2022-12-15T16:21:36.388Z,-1.81
2022-12-15T16:26:38.917Z,-1.72
2022-12-15T16:31:45.118Z,-1.75
2022-12-15T16:36:46.852Z,-1.73
2022-12-15T16:41:48.793Z,-1.68
2022-12-15T16:46:50.202Z,-1.73
2022-12-15T16:51:53.334Z,-1.76
2022-12-15T16:56:56.511Z,-1.68
2022-12-15T17:01:57.919Z,-1.79
2022-12-15T17:06:59.406Z,-1.86
2022-12-15T17:12:01.386Z,-1.91
2022-12-15T17:17:02.912Z,-1.89
2022-12-15T17:22:04.321Z,-1.85
2022-12-15T17:27:05.736Z,-1.79
2022-12-15T17:32:12.754Z,-1.70
2022-12-15T17:37:14.520Z,-2.00
2022-12-15T17:42:20.355Z,-1.74
2022-12-15T17:47:24.092Z,-1.87
2022-12-15T17:52:30.801Z,-1.85
2022-12-15T17:57:32.127Z,-1.82
2022-12-15T18:02:34.151Z,-1.83
2022-12-15T18:07:36.120Z,-1.81
2022-12-15T18:12:37.564Z,-1.84
2022-12-15T18:17:39.077Z,-1.83
2022-12-15T18:22:40.624Z,-1.89
2022-12-15T18:27:42.211Z,-1.97
2022-12-15T18:32:44.404Z,-2.09
2022-12-15T18:37:47.283Z,-2.19
2022-12-15T18:42:49.001Z,-2.07
2022-12-15T18:47:51.531Z,-2.08
2022-12-15T18:52:59.787Z,-2.17
2022-12-15T18:58:01.797Z,-2.19
2022-12-15T19:03:03.415Z,-2.32
2022-12-15T19:08:25.589Z,-2.24
2022-12-15T19:13:32.922Z,-2.26
2022-12-15T19:18:52.913Z,-2.25
2022-12-15T19:23:54.416Z,-2.27
2022-12-15T19:28:55.915Z,-2.25
2022-12-15T19:33:57.503Z,-2.20
2022-12-15T19:38:58.936Z,-2.20
2022-12-15T19:44:00.427Z,-2.22
2022-12-15T19:49:01.887Z,-2.26
2022-12-15T19:54:03.982Z,-2.39
2022-12-15T19:59:05.623Z,-2.09
2022-12-15T20:04:07.022Z,-2.15
2022-12-15T20:09:13.463Z,-2.14
2022-12-15T20:14:17.352Z,-2.10
2022-12-15T20:19:18.853Z,-2.20
2022-12-15T20:24:20.363Z,-2.21
2022-12-15T20:29:30.898Z,-2.28
2022-12-15T20:34:32.335Z,-2.30
2022-12-15T20:39:33.946Z,-2.33
2022-12-15T20:44:35.419Z,-2.28
2022-12-15T20:49:36.798Z,-2.25
2022-12-15T20:54:38.218Z,-2.27
2022-12-15T20:59:41.318Z,-2.22
2022-12-15T21:04:42.820Z,-2.33
2022-12-15T21:09:44.216Z,-2.34
2022-12-15T21:14:45.637Z,-2.32
2022-12-15T21:19:47.352Z,-2.28
2022-12-15T21:24:54.547Z,-2.27
2022-12-15T21:29:56.248Z,-2.34
2022-12-15T21:34:57.751Z,-2.29
2022-12-15T21:39:59.878Z,-2.26
2022-12-15T21:45:01.228Z,-2.34
2022-12-15T21:50:02.703Z,-2.29
2022-12-15T21:55:18.885Z,-2.29
2022-12-15T22:00:21.292Z,-2.25
2022-12-15T22:05:32.419Z,-2.24
2022-12-15T22:10:33.965Z,-2.26
2022-12-15T22:15:35.374Z,-2.25
2022-12-15T22:20:36.714Z,-2.27
2022-12-15T22:25:38.071Z,-2.32
2022-12-15T22:30:39.509Z,-2.33
2022-12-15T22:35:40.904Z,-2.31
2022-12-15T22:40:43.246Z,-2.35
2022-12-15T22:45:44.926Z,-2.34
2022-12-15T22:50:46.366Z,-2.34
2022-12-15T22:55:49.543Z,-2.36
2022-12-15T23:00:54.866Z,-2.37
2022-12-15T23:05:56.613Z,-2.43
2022-12-15T23:11:18.759Z,-2.37
2022-12-15T23:16:21.226Z,-2.35
2022-12-15T23:21:23.976Z,-2.43
2022-12-15T23:26:26.260Z,-2.47
2022-12-15T23:31:27.694Z,-2.36
2022-12-15T23:36:29.134Z,-2.36
2022-12-15T23:41:30.495Z,-2.36
2022-12-15T23:46:31.911Z,-2.36
2022-12-15T23:51:33.262Z,-2.36
2022-12-15T23:56:34.682Z,-2.47
